Time;durP1;ratioP1;P1;durP2;ratioP2;P2;SDS_P1;SDS_P2;PMS_P1;PMS_P2;Temp;Humidity;BMP_temperature;BMP_pressure;BME280_temperature;BME280_humidity;BME280_pressure;Samples;Min_cycle;Max_cycle;Signal;HPM_P1;HPM_P2
2023/02/06 00:00:32;;;;;;;22.33;10.93;;;0.30;99.90;;;;;;5020084;28;20210;-53
2023/02/06 00:02:59;;;;;;;21.70;12.13;;;0.40;99.90;;;;;;5018155;28;20203;-51
2023/02/06 00:05:26;;;;;;;18.93;10.40;;;0.50;99.90;;;;;;5018769;28;20807;-53
2023/02/06 00:07:55;;;;;;;20.37;10.50;;;0.40;99.90;;;;;;5018662;28;20207;-51
2023/02/06 00:10:22;;;;;;;17.57;10.20;;;0.40;99.90;;;;;;5009630;28;20207;-56
2023/02/06 00:12:50;;;;;;;14.67;9.83;;;0.50;99.90;;;;;;5017773;28;20455;-54
2023/02/06 00:15:17;;;;;;;19.37;10.67;;;0.50;99.90;;;;;;5016333;28;20899;-54
2023/02/06 00:17:44;;;;;;;16.73;10.47;;;0.50;99.90;;;;;;5019085;28;20206;-54
2023/02/06 00:20:12;;;;;;;17.27;10.57;;;0.50;99.90;;;;;;5015843;28;20769;-55
2023/02/06 00:22:39;;;;;;;18.00;9.50;;;0.50;99.90;;;;;;5019595;28;20211;-56
2023/02/06 00:25:07;;;;;;;17.27;10.30;;;0.40;99.90;;;;;;5033689;28;20234;-51
2023/02/06 00:27:34;;;;;;;18.47;9.87;;;0.40;99.90;;;;;;5013572;27;20202;-55
2023/02/06 00:30:01;;;;;;;15.07;9.80;;;0.40;99.90;;;;;;5021083;28;20215;-52
2023/02/06 00:32:28;;;;;;;14.47;9.10;;;0.50;99.90;;;;;;5021966;28;20198;-52
2023/02/06 00:34:55;;;;;;;16.97;9.10;;;0.40;99.90;;;;;;5021977;28;20235;-51
2023/02/06 00:37:22;;;;;;;14.70;8.83;;;0.50;99.90;;;;;;5019672;28;20982;-52
2023/02/06 00:39:49;;;;;;;13.60;8.27;;;0.50;99.90;;;;;;5023054;28;20211;-55
2023/02/06 00:42:17;;;;;;;13.20;8.23;;;0.50;99.90;;;;;;5009540;27;20196;-53
2023/02/06 00:44:45;;;;;;;11.67;7.60;;;0.50;99.90;;;;;;5022740;28;20190;-55
2023/02/06 00:47:34;;;;;;;13.10;8.30;;;0.50;99.90;;;;;;5023156;28;20229;-51
2023/02/06 00:50:01;;;;;;;14.63;8.30;;;0.50;99.90;;;;;;5020698;28;20330;-54
2023/02/06 00:52:28;;;;;;;12.07;7.60;;;0.40;99.90;;;;;;5021904;28;20196;-56
2023/02/06 00:54:55;;;;;;;16.70;8.17;;;0.50;99.90;;;;;;5049636;27;20219;-54
2023/02/06 00:57:23;;;;;;;14.63;7.30;;;0.50;99.90;;;;;;5018264;27;20204;-56
2023/02/06 00:59:51;;;;;;;9.70;7.37;;;0.50;99.90;;;;;;5034349;27;20204;-49
2023/02/06 01:02:21;;;;;;;10.63;7.03;;;0.50;99.90;;;;;;5018982;28;20842;-55
2023/02/06 01:04:48;;;;;;;13.67;6.67;;;0.50;99.90;;;;;;5021205;28;20215;-56
2023/02/06 01:07:14;;;;;;;11.53;6.60;;;0.50;99.90;;;;;;5019527;28;20202;-54
2023/02/06 01:09:41;;;;;;;12.27;7.50;;;0.50;99.90;;;;;;5021511;28;20219;-55
2023/02/06 01:12:08;;;;;;;12.73;7.60;;;0.50;99.90;;;;;;5019184;28;20200;-50
2023/02/06 01:14:36;;;;;;;16.47;7.73;;;0.40;99.90;;;;;;5012377;27;20283;-55
2023/02/06 01:17:03;;;;;;;10.00;6.67;;;0.40;99.90;;;;;;5019743;28;20268;-54
2023/02/06 01:19:30;;;;;;;17.87;7.23;;;0.40;99.90;;;;;;5020911;28;20681;-53
2023/02/06 01:21:57;;;;;;;15.57;7.20;;;0.30;99.90;;;;;;5019795;28;20207;-54
2023/02/06 01:24:24;;;;;;;17.03;6.90;;;0.20;99.90;;;;;;5026174;27;20218;-55
2023/02/06 01:26:51;;;;;;;11.87;6.70;;;0.20;99.90;;;;;;5021961;28;20229;-53
2023/02/06 01:29:18;;;;;;;15.30;7.10;;;0.20;99.90;;;;;;5008246;27;20212;-56
2023/02/06 01:31:46;;;;;;;12.27;7.23;;;0.10;99.90;;;;;;5022083;28;20203;-54
2023/02/06 01:34:13;;;;;;;11.40;6.63;;;0.10;99.90;;;;;;5018464;28;20875;-55
2023/02/06 01:36:40;;;;;;;11.27;6.47;;;0.00;99.90;;;;;;5022085;28;20227;-56
2023/02/06 01:39:07;;;;;;;11.07;6.60;;;0.00;99.90;;;;;;5017589;28;20260;-54
2023/02/06 01:41:34;;;;;;;9.83;6.30;;;0.00;99.90;;;;;;5042852;27;20282;-52
2023/02/06 01:44:11;;;;;;;14.87;6.67;;;0.00;99.90;;;;;;5019358;28;20206;-51
2023/02/06 01:46:39;;;;;;;10.60;6.43;;;0.10;99.90;;;;;;5011313;27;20222;-53
2023/02/06 01:49:09;;;;;;;10.20;6.57;;;0.10;99.90;;;;;;5017598;28;20203;-54
2023/02/06 01:51:36;;;;;;;18.93;6.17;;;0.10;99.90;;;;;;5020924;28;20290;-54
2023/02/06 01:54:07;;;;;;;14.23;5.57;;;0.10;99.90;;;;;;5019302;28;20210;-54
2023/02/06 01:56:39;;;;;;;11.23;5.10;;;0.10;99.90;;;;;;5020431;28;20265;-53
2023/02/06 01:59:05;;;;;;;10.07;5.10;;;0.10;99.90;;;;;;4998729;28;20222;-53
2023/02/06 02:01:33;;;;;;;10.13;5.07;;;0.20;99.90;;;;;;5011100;27;20206;-55
2023/02/06 02:04:05;;;;;;;14.60;5.70;;;0.20;99.90;;;;;;5019441;28;20209;-48
2023/02/06 02:06:34;;;;;;;13.53;6.27;;;0.20;99.90;;;;;;5020390;28;20600;-50
2023/02/06 02:09:03;;;;;;;10.70;6.23;;;0.20;99.90;;;;;;5019505;28;20226;-52
2023/02/06 02:11:32;;;;;;;6.93;5.07;;;0.10;99.90;;;;;;5053913;27;20832;-55
2023/02/06 02:14:01;;;;;;;9.00;5.73;;;0.00;99.90;;;;;;5018180;28;20310;-48
2023/02/06 02:16:38;;;;;;;11.63;5.47;;;0.00;99.90;;;;;;5020083;27;20211;-54
2023/02/06 02:19:23;;;;;;;8.27;4.57;;;-0.10;99.90;;;;;;5018605;28;20217;-51
2023/02/06 02:22:14;;;;;;;9.83;5.53;;;-0.10;99.90;;;;;;5025471;27;20215;-53
2023/02/06 02:25:17;;;;;;;10.23;5.33;;;0.00;99.90;;;;;;5012787;28;20227;-51
2023/02/06 02:28:07;;;;;;;8.33;4.63;;;-0.10;99.90;;;;;;5035763;28;20209;-56
2023/02/06 02:31:15;;;;;;;10.40;4.93;;;-0.10;99.90;;;;;;5012402;28;20623;-50
2023/02/06 02:34:45;;;;;;;10.27;4.03;;;-0.10;99.90;;;;;;5018950;28;20995;-54
2023/02/06 02:37:25;;;;;;;9.67;4.43;;;0.00;99.90;;;;;;5020222;28;20621;-52
2023/02/06 02:39:59;;;;;;;13.60;5.03;;;0.00;99.90;;;;;;5022471;27;20202;-54
2023/02/06 02:42:32;;;;;;;11.40;4.50;;;0.00;99.90;;;;;;5013954;28;20196;-52
2023/02/06 02:45:08;;;;;;;13.83;4.53;;;0.00;99.90;;;;;;5018599;28;20229;-51
2023/02/06 02:47:44;;;;;;;7.30;3.63;;;0.00;99.90;;;;;;5008240;27;20216;-52
2023/02/06 02:50:13;;;;;;;8.10;4.20;;;0.00;99.90;;;;;;5033938;28;20203;-55
2023/02/06 02:52:40;;;;;;;10.50;4.23;;;0.00;99.90;;;;;;5016357;28;20235;-51
2023/02/06 02:55:16;;;;;;;12.07;4.07;;;0.10;99.90;;;;;;5013408;27;20288;-55
2023/02/06 02:57:45;;;;;;;8.13;3.50;;;0.10;99.90;;;;;;5015980;28;20220;-51
2023/02/06 03:00:16;;;;;;;10.87;3.83;;;0.20;99.90;;;;;;5021393;28;20200;-52
2023/02/06 03:02:45;;;;;;;11.77;3.87;;;0.20;99.90;;;;;;5008688;27;20210;-52
2023/02/06 03:05:19;;;;;;;7.97;3.97;;;0.20;99.90;;;;;;5019212;28;20227;-53
2023/02/06 03:07:57;;;;;;;8.93;3.43;;;0.20;99.90;;;;;;5010432;28;20227;-56
2023/02/06 03:10:32;;;;;;;6.77;3.57;;;0.20;99.90;;;;;;5040334;27;20192;-53
2023/02/06 03:13:05;;;;;;;16.47;4.03;;;0.30;99.90;;;;;;5017783;28;20218;-55
2023/02/06 03:15:41;;;;;;;10.63;3.30;;;0.30;99.90;;;;;;5017071;28;20219;-52
2023/02/06 03:18:13;;;;;;;8.27;2.87;;;0.40;99.90;;;;;;5014961;27;20203;-56
2023/02/06 03:20:44;;;;;;;14.90;4.03;;;0.30;99.90;;;;;;5015560;28;20235;-50
2023/02/06 03:23:14;;;;;;;8.10;3.20;;;0.40;99.90;;;;;;5020744;28;20211;-52
2023/02/06 03:25:44;;;;;;;15.93;4.27;;;0.40;99.90;;;;;;5016519;28;20223;-55
2023/02/06 03:28:16;;;;;;;7.70;3.23;;;0.40;99.90;;;;;;5020745;28;20203;-55
2023/02/06 03:30:45;;;;;;;11.33;3.20;;;0.50;99.90;;;;;;5010751;28;20385;-52
2023/02/06 03:33:15;;;;;;;9.60;3.17;;;0.40;99.90;;;;;;5010873;27;20207;-55
2023/02/06 03:35:43;;;;;;;14.10;3.77;;;0.40;99.90;;;;;;5016285;28;20213;-50
2023/02/06 03:38:11;;;;;;;8.83;2.90;;;0.40;99.90;;;;;;5020816;28;20204;-54
2023/02/06 03:40:40;;;;;;;6.97;3.20;;;0.40;99.90;;;;;;5048578;27;20640;-52
2023/02/06 03:43:08;;;;;;;14.63;3.27;;;0.40;99.90;;;;;;5019529;28;20694;-51
2023/02/06 03:45:40;;;;;;;14.97;3.80;;;0.40;99.90;;;;;;5017750;28;20248;-52
2023/02/06 03:48:13;;;;;;;12.17;3.30;;;0.40;99.90;;;;;;5017572;27;20252;-55
2023/02/06 03:51:08;;;;;;;14.57;4.20;;;0.40;99.90;;;;;;5019299;28;20238;-51
2023/02/06 03:53:37;;;;;;;7.20;3.33;;;0.30;99.90;;;;;;5010618;28;20206;-51
2023/02/06 03:56:10;;;;;;;11.23;3.87;;;0.30;99.90;;;;;;5013524;28;20222;-52
2023/02/06 03:58:37;;;;;;;7.70;3.53;;;0.30;99.90;;;;;;5016951;28;20607;-50
2023/02/06 04:01:06;;;;;;;7.70;3.17;;;0.30;99.90;;;;;;5020232;28;20670;-52
2023/02/06 04:03:32;;;;;;;11.87;3.83;;;0.30;99.90;;;;;;5039395;27;20222;-50
2023/02/06 04:06:00;;;;;;;10.37;3.53;;;0.30;99.90;;;;;;5018778;28;20302;-51
2023/02/06 04:08:28;;;;;;;15.13;3.37;;;0.30;99.90;;;;;;5018301;28;20210;-52
2023/02/06 04:10:58;;;;;;;11.33;3.87;;;0.30;99.90;;;;;;5024034;28;20191;-56
2023/02/06 04:13:25;;;;;;;14.30;3.90;;;0.30;99.90;;;;;;5014067;28;20198;-48
2023/02/06 04:15:55;;;;;;;13.10;3.30;;;0.30;99.90;;;;;;5017626;28;20439;-55
2023/02/06 04:18:22;;;;;;;13.23;3.67;;;0.30;99.90;;;;;;5017957;28;20220;-50
2023/02/06 04:20:51;;;;;;;10.07;3.60;;;0.30;99.90;;;;;;5014254;28;20259;-53
2023/02/06 04:23:18;;;;;;;12.37;3.17;;;0.30;99.90;;;;;;5019431;28;20218;-56
2023/02/06 04:25:46;;;;;;;14.10;3.63;;;0.30;99.90;;;;;;5015693;28;20219;-52
2023/02/06 04:28:13;;;;;;;12.63;3.30;;;0.30;99.90;;;;;;5020234;28;20206;-53
2023/02/06 04:30:40;;;;;;;14.70;3.87;;;0.30;99.90;;;;;;5016428;28;20252;-57
2023/02/06 04:33:07;;;;;;;16.03;3.60;;;0.30;99.90;;;;;;5012045;28;20221;-52
2023/02/06 04:35:34;;;;;;;4.47;2.93;;;0.30;99.90;;;;;;5007379;28;20265;-54
2023/02/06 04:38:01;;;;;;;11.33;2.77;;;0.30;99.90;;;;;;5019737;28;20223;-52
2023/02/06 04:40:28;;;;;;;12.57;3.23;;;0.30;99.90;;;;;;5005260;28;20210;-54
2023/02/06 04:42:56;;;;;;;9.33;3.10;;;0.30;99.90;;;;;;5016986;28;20198;-55
2023/02/06 04:45:23;;;;;;;6.63;3.13;;;0.30;99.90;;;;;;5030057;28;20215;-56
2023/02/06 04:47:50;;;;;;;12.80;3.30;;;0.30;99.90;;;;;;5027304;28;20638;-56
2023/02/06 04:50:17;;;;;;;10.57;3.17;;;0.30;99.90;;;;;;5007947;28;20289;-51
2023/02/06 04:52:44;;;;;;;11.67;3.20;;;0.30;99.90;;;;;;5018533;27;20254;-55
2023/02/06 04:55:11;;;;;;;12.87;3.87;;;0.30;99.90;;;;;;5016771;28;20227;-52
2023/02/06 04:57:41;;;;;;;9.00;2.90;;;0.30;99.90;;;;;;5019055;28;20238;-53
2023/02/06 05:00:10;;;;;;;12.03;3.40;;;0.30;99.90;;;;;;5018170;28;20214;-54
2023/02/06 05:02:38;;;;;;;11.57;3.63;;;0.30;99.90;;;;;;5012464;28;20294;-56
2023/02/06 05:05:06;;;;;;;8.63;3.00;;;0.20;99.90;;;;;;5015215;28;20869;-51
2023/02/06 05:07:34;;;;;;;13.63;3.63;;;0.20;99.90;;;;;;5007267;28;20204;-55
2023/02/06 05:10:00;;;;;;;18.20;4.00;;;0.20;99.90;;;;;;5028505;28;20207;-51
2023/02/06 05:12:28;;;;;;;12.00;3.20;;;0.20;99.90;;;;;;5037873;27;21445;-54
2023/02/06 05:14:55;;;;;;;12.23;3.30;;;0.30;99.90;;;;;;5022485;28;20225;-52
2023/02/06 05:17:23;;;;;;;9.53;3.53;;;0.20;99.90;;;;;;5018910;28;20223;-54
2023/02/06 05:19:50;;;;;;;11.03;3.83;;;0.20;99.90;;;;;;5022849;28;20210;-52
2023/02/06 05:22:16;;;;;;;9.97;3.33;;;0.20;99.90;;;;;;5007546;27;20219;-51
2023/02/06 05:24:43;;;;;;;12.07;2.97;;;0.20;99.90;;;;;;5017617;28;20203;-54
2023/02/06 05:27:32;;;;;;;9.97;3.10;;;0.20;99.90;;;;;;5020410;28;20864;-52
2023/02/06 05:29:58;;;;;;;8.57;2.93;;;0.20;99.90;;;;;;5022663;28;20203;-56
2023/02/06 05:32:26;;;;;;;10.43;3.13;;;0.20;99.90;;;;;;5018387;28;20222;-55
2023/02/06 05:34:53;;;;;;;12.97;3.20;;;0.20;99.90;;;;;;5022531;28;20613;-56
2023/02/06 05:37:19;;;;;;;14.03;3.83;;;0.20;99.90;;;;;;5009477;27;20740;-50
2023/02/06 05:39:46;;;;;;;18.77;3.93;;;0.20;99.90;;;;;;5012527;27;20211;-52
2023/02/06 05:42:13;;;;;;;12.40;3.50;;;0.10;99.90;;;;;;5007911;28;20249;-53
2023/02/06 05:44:40;;;;;;;11.53;3.50;;;0.10;99.90;;;;;;5021006;28;20294;-55
2023/02/06 05:47:06;;;;;;;10.00;3.53;;;0.10;99.90;;;;;;5013370;28;20203;-50
2023/02/06 05:49:35;;;;;;;11.63;3.37;;;0.10;99.90;;;;;;5019994;28;20200;-55
2023/02/06 05:52:01;;;;;;;11.33;3.63;;;0.20;99.90;;;;;;5008040;27;20203;-52
2023/02/06 05:54:28;;;;;;;9.93;3.40;;;0.10;99.90;;;;;;5007122;27;20207;-50
2023/02/06 05:56:56;;;;;;;14.03;3.60;;;0.00;99.90;;;;;;5012995;28;20969;-53
2023/02/06 05:59:24;;;;;;;13.60;3.87;;;0.00;99.90;;;;;;5013606;27;20294;-53
2023/02/06 06:01:50;;;;;;;10.40;3.70;;;0.00;99.90;;;;;;5009275;27;20204;-52
2023/02/06 06:04:17;;;;;;;13.83;3.43;;;0.00;99.90;;;;;;5019633;28;20210;-55
2023/02/06 06:06:45;;;;;;;11.40;3.00;;;-0.10;99.90;;;;;;5015323;28;20771;-54
2023/02/06 06:09:13;;;;;;;8.87;3.27;;;-0.10;99.90;;;;;;5010399;27;20196;-54
2023/02/06 06:11:40;;;;;;;14.37;3.50;;;-0.20;99.90;;;;;;5011410;27;20214;-51
2023/02/06 06:14:06;;;;;;;10.43;3.20;;;-0.20;99.90;;;;;;5012742;27;20211;-50
2023/02/06 06:16:34;;;;;;;8.43;3.13;;;-0.20;99.90;;;;;;5014441;27;20231;-51
2023/02/06 06:19:22;;;;;;;11.13;3.13;;;-0.30;99.90;;;;;;5022066;28;20226;-54
2023/02/06 06:21:51;;;;;;;10.03;3.43;;;-0.40;99.90;;;;;;5012717;28;20822;-51
2023/02/06 06:24:18;;;;;;;13.63;3.37;;;-0.40;99.90;;;;;;5011969;27;20209;-55
2023/02/06 06:26:45;;;;;;;10.47;3.33;;;-0.50;99.90;;;;;;5007604;27;20220;-52
2023/02/06 06:29:12;;;;;;;10.60;3.03;;;-0.60;99.90;;;;;;5013157;28;20681;-51
2023/02/06 06:31:38;;;;;;;9.60;3.10;;;-0.60;99.90;;;;;;5005807;28;20208;-51
2023/02/06 06:34:05;;;;;;;6.63;3.10;;;-0.70;99.90;;;;;;5018989;28;20721;-52
2023/02/06 06:36:32;;;;;;;20.93;4.07;;;-0.70;99.90;;;;;;5017883;28;20225;-52
2023/02/06 06:39:01;;;;;;;9.30;4.00;;;-0.70;99.90;;;;;;5019448;28;20205;-53
2023/02/06 06:41:27;;;;;;;9.10;3.77;;;-0.70;99.90;;;;;;5005420;27;20204;-49
2023/02/06 06:43:56;;;;;;;13.33;3.80;;;-0.70;99.90;;;;;;5012827;27;20400;-56
2023/02/06 06:46:22;;;;;;;9.47;3.67;;;-0.70;99.90;;;;;;5012862;27;20220;-56
2023/02/06 06:48:49;;;;;;;8.87;3.83;;;-0.70;99.90;;;;;;5008526;27;20206;-55
2023/02/06 06:51:16;;;;;;;15.30;3.63;;;-0.70;99.90;;;;;;5015856;28;20210;-49
2023/02/06 06:53:43;;;;;;;7.33;3.57;;;-0.70;99.90;;;;;;5006546;27;20881;-54
2023/02/06 06:56:13;;;;;;;7.53;3.03;;;-0.70;99.90;;;;;;5004165;27;20589;-52
2023/02/06 06:58:41;;;;;;;7.23;3.87;;;-0.70;99.90;;;;;;5005312;27;20842;-54
2023/02/06 07:01:08;;;;;;;10.03;3.60;;;-0.70;99.90;;;;;;5014848;28;20196;-54
2023/02/06 07:03:35;;;;;;;9.63;4.07;;;-0.70;99.90;;;;;;5012476;28;20395;-50
2023/02/06 07:06:03;;;;;;;15.87;4.23;;;-0.70;99.90;;;;;;5014296;28;20218;-52
2023/02/06 07:08:30;;;;;;;13.63;3.73;;;-0.60;99.90;;;;;;5013148;28;20200;-49
2023/02/06 07:10:57;;;;;;;9.77;4.57;;;-0.60;99.90;;;;;;5017074;27;20314;-56
2023/02/06 07:13:25;;;;;;;10.47;3.70;;;-0.60;99.90;;;;;;5011723;28;20758;-51
2023/02/06 07:15:52;;;;;;;9.40;3.83;;;-0.60;99.90;;;;;;5012746;28;20226;-53
2023/02/06 07:18:19;;;;;;;15.37;3.57;;;-0.60;99.90;;;;;;5015306;28;20218;-53
2023/02/06 07:20:46;;;;;;;11.60;3.87;;;-0.60;99.90;;;;;;5014488;28;20202;-52
2023/02/06 07:23:13;;;;;;;8.50;3.63;;;-0.50;99.90;;;;;;5015164;28;20309;-53
2023/02/06 07:25:40;;;;;;;11.90;3.80;;;-0.50;99.90;;;;;;5016384;28;21037;-51
2023/02/06 07:28:09;;;;;;;16.33;4.13;;;-0.50;99.90;;;;;;5008099;27;20219;-53
2023/02/06 07:30:37;;;;;;;10.33;3.60;;;-0.40;99.90;;;;;;5008097;28;20286;-50
2023/02/06 07:33:05;;;;;;;10.63;4.27;;;-0.40;99.90;;;;;;5009324;28;20213;-54
2023/02/06 07:35:32;;;;;;;7.57;3.67;;;-0.30;99.90;;;;;;5013196;28;20219;-51
2023/02/06 07:37:59;;;;;;;11.40;4.10;;;-0.30;99.90;;;;;;5017612;28;20234;-54
2023/02/06 07:40:27;;;;;;;13.93;4.17;;;-0.30;99.90;;;;;;5027022;27;20199;-52
2023/02/06 07:42:54;;;;;;;9.80;4.63;;;-0.30;99.90;;;;;;4997761;28;20296;-56
2023/02/06 07:45:25;;;;;;;11.90;5.13;;;-0.20;99.90;;;;;;5016633;28;20223;-51
2023/02/06 07:48:13;;;;;;;14.93;6.37;;;-0.20;99.90;;;;;;5011070;28;20214;-53
2023/02/06 07:50:40;;;;;;;16.80;5.50;;;-0.10;99.90;;;;;;5011090;28;20206;-56
2023/02/06 07:53:07;;;;;;;15.40;6.60;;;0.00;99.90;;;;;;5006873;27;20701;-51
2023/02/06 07:55:35;;;;;;;15.07;5.50;;;0.10;99.90;;;;;;5008124;28;20306;-51
2023/02/06 07:58:02;;;;;;;10.07;6.50;;;0.10;99.90;;;;;;5003521;28;20314;-53
2023/02/06 08:00:29;;;;;;;17.90;6.23;;;0.20;99.90;;;;;;4999513;28;20984;-52
2023/02/06 08:02:56;;;;;;;13.87;6.73;;;0.30;99.90;;;;;;5000985;28;21440;-52
2023/02/06 08:05:24;;;;;;;19.50;6.97;;;0.30;99.90;;;;;;5004944;28;20724;-50
2023/02/06 08:07:52;;;;;;;14.03;5.60;;;0.30;99.90;;;;;;5002236;28;20198;-51
2023/02/06 08:10:19;;;;;;;15.47;6.00;;;0.40;99.90;;;;;;5009991;28;20203;-50
2023/02/06 08:12:45;;;;;;;18.77;6.70;;;0.40;99.90;;;;;;5007991;28;20807;-53
2023/02/06 08:15:12;;;;;;;19.67;6.23;;;0.50;99.90;;;;;;5000166;28;20246;-49
2023/02/06 08:17:41;;;;;;;19.53;7.20;;;0.50;99.90;;;;;;5011163;28;20216;-51
2023/02/06 08:20:10;;;;;;;12.60;6.20;;;0.50;99.90;;;;;;5008114;28;20218;-52
2023/02/06 08:22:39;;;;;;;19.47;6.17;;;0.60;99.90;;;;;;5000989;28;20599;-51
2023/02/06 08:25:06;;;;;;;19.13;6.40;;;0.60;99.90;;;;;;5012655;28;20219;-53
2023/02/06 08:27:34;;;;;;;16.43;5.97;;;0.70;99.90;;;;;;5012247;28;20218;-50
2023/02/06 08:30:20;;;;;;;18.93;7.27;;;0.70;99.90;;;;;;4997624;28;20246;-48
2023/02/06 08:32:47;;;;;;;15.57;5.63;;;0.80;99.90;;;;;;5009332;28;20959;-55
2023/02/06 08:35:14;;;;;;;15.30;6.17;;;0.80;99.90;;;;;;5005228;28;20241;-53
2023/02/06 08:37:42;;;;;;;14.97;5.53;;;0.90;99.90;;;;;;5000911;28;20223;-50
2023/02/06 08:40:10;;;;;;;21.83;6.37;;;0.90;99.90;;;;;;5020775;28;20203;-52
2023/02/06 08:42:37;;;;;;;18.07;5.73;;;0.90;99.90;;;;;;5003958;28;20955;-49
2023/02/06 08:45:04;;;;;;;27.80;6.73;;;1.00;99.90;;;;;;5003946;28;20258;-53
2023/02/06 08:47:31;;;;;;;14.40;5.67;;;1.00;99.90;;;;;;5012611;28;20282;-51
2023/02/06 08:49:58;;;;;;;20.17;6.10;;;1.00;99.90;;;;;;5009301;28;20214;-49
2023/02/06 08:52:24;;;;;;;19.57;6.33;;;1.10;99.90;;;;;;5002046;27;20203;-48
2023/02/06 08:54:52;;;;;;;25.33;6.00;;;1.10;99.90;;;;;;5014921;28;20208;-48
2023/02/06 08:57:19;;;;;;;15.05;5.90;;;1.10;99.90;;;;;;5015107;28;20200;-53
2023/02/06 08:59:46;;;;;;;18.57;6.60;;;1.10;99.90;;;;;;5015248;27;20416;-49
2023/02/06 09:02:13;;;;;;;16.90;6.23;;;1.10;99.90;;;;;;5020177;28;20283;-51
2023/02/06 09:04:41;;;;;;;19.37;5.87;;;1.10;99.90;;;;;;5011232;27;20218;-53
2023/02/06 09:07:08;;;;;;;14.17;5.80;;;1.20;99.90;;;;;;5004515;28;20209;-52
2023/02/06 09:09:34;;;;;;;16.43;4.90;;;1.20;99.90;;;;;;5017295;27;20203;-50
2023/02/06 09:12:04;;;;;;;23.17;6.40;;;1.20;99.90;;;;;;5033383;27;20219;-51
2023/02/06 09:14:31;;;;;;;16.63;5.87;;;1.20;99.90;;;;;;5005818;27;20257;-53
2023/02/06 09:16:57;;;;;;;17.80;6.40;;;1.20;99.90;;;;;;5003140;27;20305;-52
2023/02/06 09:19:24;;;;;;;11.43;5.73;;;1.30;99.90;;;;;;5014648;27;20213;-51
2023/02/06 09:21:51;;;;;;;16.77;6.23;;;1.30;99.90;;;;;;5006530;27;20682;-51
2023/02/06 09:24:18;;;;;;;17.30;6.00;;;1.30;99.90;;;;;;5006123;27;20231;-51
2023/02/06 09:26:45;;;;;;;14.73;6.13;;;1.40;99.90;;;;;;5012853;27;20238;-53
2023/02/06 09:29:14;;;;;;;13.27;6.30;;;1.40;99.90;;;;;;5010747;28;20597;-49
2023/02/06 09:31:42;;;;;;;11.50;5.97;;;1.40;99.90;;;;;;5007676;28;20743;-51
2023/02/06 09:34:10;;;;;;;13.00;5.97;;;1.40;99.90;;;;;;5013098;28;20212;-50
2023/02/06 09:36:37;;;;;;;16.20;6.13;;;1.40;99.90;;;;;;5020889;27;20223;-53
2023/02/06 09:39:07;;;;;;;11.00;5.77;;;1.50;99.90;;;;;;5015081;27;20635;-54
2023/02/06 09:41:39;;;;;;;11.30;5.87;;;1.50;99.90;;;;;;5010873;28;20291;-52
2023/02/06 09:44:16;;;;;;;11.53;5.77;;;1.50;99.90;;;;;;5020385;28;20683;-47
2023/02/06 09:46:46;;;;;;;14.97;5.73;;;1.60;99.90;;;;;;5011875;27;20243;-55
2023/02/06 09:49:18;;;;;;;10.63;5.93;;;1.60;99.90;;;;;;5018561;27;20582;-50
2023/02/06 09:51:59;;;;;;;13.00;6.23;;;1.60;99.90;;;;;;5010164;27;20205;-51
2023/02/06 09:54:34;;;;;;;14.00;6.60;;;1.60;99.90;;;;;;5013056;27;20324;-54
2023/02/06 09:57:06;;;;;;;13.60;6.17;;;1.70;99.90;;;;;;5014352;28;20222;-51
2023/02/06 09:59:42;;;;;;;15.10;6.53;;;1.80;99.90;;;;;;4998684;27;20594;-55
2023/02/06 10:02:30;;;;;;;17.33;5.77;;;1.80;99.90;;;;;;5000842;27;20208;-49
2023/02/06 10:05:02;;;;;;;12.60;6.30;;;1.80;99.90;;;;;;5006773;27;20203;-51
2023/02/06 10:07:54;;;;;;;11.83;6.87;;;1.90;99.90;;;;;;5009841;28;20592;-51
2023/02/06 10:10:26;;;;;;;13.23;7.40;;;2.00;99.90;;;;;;5006393;27;20288;-53
2023/02/06 10:12:59;;;;;;;12.67;7.10;;;2.00;99.90;;;;;;5010069;27;20304;-52
2023/02/06 10:15:33;;;;;;;13.90;6.63;;;2.00;99.90;;;;;;5004074;28;20219;-52
2023/02/06 10:18:06;;;;;;;10.63;6.43;;;2.00;99.90;;;;;;4999168;27;20215;-54
2023/02/06 10:20:36;;;;;;;9.80;5.43;;;2.10;99.90;;;;;;5009966;28;20204;-56
2023/02/06 10:23:11;;;;;;;7.53;5.33;;;2.10;99.90;;;;;;4999214;27;20212;-53
2023/02/06 10:26:05;;;;;;;13.00;5.87;;;2.10;99.90;;;;;;5005287;27;20247;-52
2023/02/06 10:28:34;;;;;;;8.90;5.87;;;2.10;99.90;;;;;;5015064;27;20202;-55
2023/02/06 10:31:30;;;;;;;13.37;6.13;;;2.20;99.90;;;;;;5005004;28;20288;-51
2023/02/06 10:34:16;;;;;;;10.70;5.60;;;2.30;99.90;;;;;;5000802;27;20235;-49
2023/02/06 10:36:55;;;;;;;10.40;5.40;;;2.40;99.90;;;;;;5005355;28;20903;-53
2023/02/06 10:39:45;;;;;;;10.23;6.07;;;2.50;99.90;;;;;;5012539;27;20566;-54
2023/02/06 10:42:18;;;;;;;14.63;6.23;;;2.60;99.90;;;;;;5004707;27;20260;-55
2023/02/06 10:44:52;;;;;;;7.77;5.80;;;2.60;99.90;;;;;;5009000;27;20292;-53
2023/02/06 10:47:31;;;;;;;13.00;6.50;;;2.70;99.90;;;;;;4998309;27;20200;-54
2023/02/06 10:50:07;;;;;;;13.33;7.23;;;2.80;99.90;;;;;;5010069;28;20926;-54
2023/02/06 10:52:36;;;;;;;12.77;6.80;;;2.90;99.90;;;;;;4999239;27;20300;-56
2023/02/06 10:55:13;;;;;;;11.80;7.00;;;3.00;99.90;;;;;;5000549;27;20220;-52
2023/02/06 10:57:42;;;;;;;12.67;6.93;;;3.10;99.90;;;;;;5004307;28;20200;-49
2023/02/06 11:00:17;;;;;;;9.27;5.97;;;3.10;99.90;;;;;;5001849;27;20225;-52
2023/02/06 11:02:54;;;;;;;14.10;7.17;;;3.00;99.90;;;;;;5005409;27;20663;-49
2023/02/06 11:05:23;;;;;;;11.00;6.07;;;3.00;99.90;;;;;;5025262;27;20227;-57
2023/02/06 11:07:54;;;;;;;11.40;5.90;;;3.10;99.90;;;;;;5007747;28;20196;-51
2023/02/06 11:10:24;;;;;;;13.57;6.27;;;3.10;99.90;;;;;;5012040;28;20201;-52
2023/02/06 11:12:56;;;;;;;11.97;6.77;;;3.20;99.90;;;;;;5006232;28;20208;-52
2023/02/06 11:15:31;;;;;;;11.50;6.43;;;3.20;99.90;;;;;;5008237;27;20246;-54
2023/02/06 11:18:01;;;;;;;10.63;6.27;;;3.30;99.90;;;;;;5007434;27;20206;-53
2023/02/06 11:20:32;;;;;;;11.60;6.93;;;3.30;99.90;;;;;;5014609;28;20200;-54
2023/02/06 11:23:15;;;;;;;10.40;7.17;;;3.30;99.90;;;;;;5012249;28;20215;-53
2023/02/06 11:25:43;;;;;;;8.87;6.50;;;3.30;99.90;;;;;;5031757;27;20227;-50
2023/02/06 11:28:14;;;;;;;10.10;6.67;;;3.30;99.90;;;;;;5008878;27;20212;-53
2023/02/06 11:30:54;;;;;;;12.27;7.17;;;3.30;99.90;;;;;;5009204;27;20207;-52
2023/02/06 11:33:30;;;;;;;14.30;6.90;;;3.30;99.90;;;;;;5033845;27;20691;-52
2023/02/06 11:35:59;;;;;;;12.03;6.20;;;3.30;99.90;;;;;;4997598;27;20216;-56
2023/02/06 11:38:28;;;;;;;12.43;6.57;;;3.30;99.90;;;;;;5010333;28;20251;-56
2023/02/06 11:40:59;;;;;;;12.40;7.37;;;3.20;99.90;;;;;;5010290;27;20192;-54
2023/02/06 11:43:28;;;;;;;9.10;6.87;;;3.20;99.90;;;;;;5013605;28;20227;-56
2023/02/06 11:46:24;;;;;;;8.73;6.83;;;3.20;99.90;;;;;;4992133;27;20239;-56
2023/02/06 11:49:07;;;;;;;10.33;6.57;;;3.20;99.90;;;;;;5048092;28;20784;-55
2023/02/06 11:51:50;;;;;;;13.07;7.30;;;3.10;99.90;;;;;;5000103;27;20214;-50
2023/02/06 11:54:23;;;;;;;10.00;6.67;;;3.10;99.90;;;;;;5009511;28;20199;-55
2023/02/06 11:57:00;;;;;;;12.37;7.90;;;3.10;99.90;;;;;;5006672;28;21005;-56
2023/02/06 11:59:28;;;;;;;11.90;7.60;;;3.20;99.90;;;;;;5013340;28;20220;-49
2023/02/06 12:01:59;;;;;;;10.37;6.97;;;3.20;99.90;;;;;;5001379;27;20207;-56
2023/02/06 12:04:36;;;;;;;11.70;7.43;;;3.20;99.90;;;;;;5011732;28;20193;-55
2023/02/06 12:07:14;;;;;;;10.70;7.33;;;3.20;99.90;;;;;;4999132;28;20235;-51
2023/02/06 12:09:41;;;;;;;12.90;6.77;;;3.30;99.90;;;;;;5006146;28;20279;-56
2023/02/06 12:12:28;;;;;;;10.30;6.23;;;3.30;99.90;;;;;;5018817;28;20565;-53
2023/02/06 12:14:58;;;;;;;13.57;7.40;;;3.20;99.90;;;;;;5019677;28;20196;-55
2023/02/06 12:17:28;;;;;;;12.40;7.63;;;3.20;99.90;;;;;;5005781;28;20204;-54
2023/02/06 12:20:03;;;;;;;11.77;6.73;;;3.20;99.90;;;;;;5022043;28;20226;-51
2023/02/06 12:22:36;;;;;;;10.57;6.57;;;3.20;99.90;;;;;;5014280;27;20215;-57
2023/02/06 12:25:04;;;;;;;10.00;7.00;;;3.20;99.90;;;;;;5030947;27;20226;-51
2023/02/06 12:27:37;;;;;;;10.30;6.77;;;3.20;99.90;;;;;;5024623;27;20253;-55
2023/02/06 12:30:16;;;;;;;14.47;6.77;;;3.20;99.90;;;;;;5019437;27;20196;-49
2023/02/06 12:32:47;;;;;;;13.37;6.53;;;3.20;99.90;;;;;;5013693;27;20695;-53
2023/02/06 12:35:23;;;;;;;9.80;6.53;;;3.20;99.90;;;;;;5023255;28;20220;-51
2023/02/06 12:37:55;;;;;;;11.50;6.83;;;3.20;99.90;;;;;;5030985;27;20215;-54
2023/02/06 12:40:37;;;;;;;13.40;6.20;;;3.20;99.90;;;;;;5008006;27;20207;-53
2023/02/06 12:43:09;;;;;;;8.80;5.90;;;3.20;99.90;;;;;;5024961;27;20306;-51
2023/02/06 12:45:46;;;;;;;10.17;6.70;;;3.30;99.90;;;;;;5019471;28;20219;-55
2023/02/06 12:48:19;;;;;;;13.20;6.33;;;3.40;99.90;;;;;;5006594;27;20204;-49
2023/02/06 12:50:52;;;;;;;9.33;6.07;;;3.40;99.90;;;;;;5026591;28;20278;-52
2023/02/06 12:53:26;;;;;;;13.50;7.03;;;3.40;99.90;;;;;;5012330;27;20235;-55
2023/02/06 12:56:23;;;;;;;11.20;6.57;;;3.40;99.90;;;;;;5015154;27;20262;-50
2023/02/06 12:58:58;;;;;;;11.53;6.60;;;3.40;99.90;;;;;;5022008;27;20199;-55
2023/02/06 13:01:39;;;;;;;12.87;6.33;;;3.40;99.90;;;;;;5020735;28;20199;-55
2023/02/06 13:04:12;;;;;;;9.77;6.93;;;3.50;99.90;;;;;;5014022;27;20207;-49
2023/02/06 13:06:48;;;;;;;8.83;5.53;;;3.50;99.90;;;;;;5025373;28;20235;-56